Accueil
METAR-TAF:

METAR-TAF

Aéroports :

Aéroport international de N'Djaména

Ndjamena, Tchad

latitude: 12-08N, longitude: 015-02E, altitude: 295 m

Observation

Le bulletin a été fait il y a 22 minutes, à 15:00 UTC
Vent 11 kt de sud-ouest
Température 27°C
Humidité 79%
Pression 1010 hPa
Visibilité: 8000 m
Quelques nuages à une hauteur de 2000 ft
Nuages épars à une hauteur de 3000 ft
Quelques nuages à une hauteur de 4000 ft, Cumulonimbus.

METAR: FTTJ 031500Z 22011KT 8000 FEW020 SCT030 FEW040CB 27/23 Q1010 NOSIG

Heure: 16:22 (15:22 UTC)

Prévision

Le bulletin a été fait il y a 4 heures et 22 minutes, à 11:00 UTC
Prévision valable du 03 à 12 UTC au 04 à 18 UTC
Vent 8 kt de sud-ouest
Visibilité 10 km ou plus
Nuages épars à une hauteur de 2000 ft
Probabilité 40% :
Temporairement
du 03 à 20 UTC au 04 à 02 UTC
Visibilité: 3000 m
orage, pluie

TAF: FTTJ 031100Z 0312/0418 22008KT 9999 SCT020 PROB40 TEMPO 0320/0402 3000 TSRA

Observations et prévisions météorologiques de plus de 4000 aéroports (messages METAR et TAF).

Les stations disponibles sont représentées par des disques jaunes et rouges sur la carte.

Passer la souris dessus pour voir le nom de la station.

Cliquer dessus pour voir les observations et prévisions météorologiques.

Pour changer de carte: cliquez sur les boutons verts avec une croix noire pour zoomer, sur le bouton vert avec un tiret pour effectuer un zoom arrière, ou sur les flèches vertes pour les cartes adjacentes.


METAR-TAF: